createdAt,value
2018-12-30T00:28:44.344Z,102460.20
2018-12-30T00:31:44.995Z,102449.25
2018-12-30T00:45:51.680Z,102485.28
2018-12-30T00:48:53.087Z,102498.52
2018-12-30T00:58:25.055Z,102510.44
2018-12-30T01:01:25.182Z,102512.50
2018-12-30T01:04:05.785Z,102508.78
2018-12-30T01:09:53.542Z,102520.76
2018-12-30T01:15:19.317Z,102539.16
2018-12-30T01:30:21.197Z,102532.32
2018-12-30T01:32:57.695Z,102540.70
2018-12-30T01:35:34.347Z,102552.91
2018-12-30T01:38:04.658Z,102562.90
2018-12-30T01:46:57.488Z,102571.28
2018-12-30T01:53:11.244Z,102576.41
2018-12-30T01:56:04.733Z,102573.04
2018-12-30T01:59:15.739Z,102575.50
2018-12-30T02:07:44.044Z,102588.48
2018-12-30T02:10:45.974Z,102601.48
2018-12-30T02:31:19.608Z,102623.70
2018-12-30T02:34:19.306Z,102624.53
2018-12-30T02:42:58.918Z,102645.22
2018-12-30T02:45:58.647Z,102639.27
2018-12-30T02:48:26.276Z,102639.06
2018-12-30T02:59:57.578Z,102611.46
2018-12-30T03:06:04.792Z,102640.80
2018-12-30T03:08:43.524Z,102648.44
2018-12-30T03:11:36.803Z,102648.75
2018-12-30T03:14:55.024Z,102642.84
2018-12-30T03:20:29.243Z,102650.48
2018-12-30T03:28:41.257Z,102634.03
2018-12-30T03:31:42.939Z,102631.64
2018-12-30T03:37:28.689Z,102620.31
2018-12-30T03:40:39.937Z,102629.59
2018-12-30T03:43:42.420Z,102645.97
2018-12-30T03:46:29.269Z,102651.50
2018-12-30T03:49:07.267Z,102656.16
2018-12-30T03:51:56.814Z,102661.67
2018-12-30T03:54:49.279Z,102654.55
2018-12-30T03:57:18.077Z,102639.23
2018-12-30T03:59:46.783Z,102667.88
2018-12-30T04:05:47.115Z,102667.05
2018-12-30T04:11:36.129Z,102675.86
2018-12-30T04:20:01.612Z,102666.80
2018-12-30T04:23:00.923Z,102666.80
2018-12-30T04:25:52.190Z,102676.79
2018-12-30T04:29:15.322Z,102673.19
2018-12-30T04:30:58.846Z,102660.62
2018-12-30T04:33:58.385Z,102664.84
2018-12-30T04:36:27.331Z,102678.28
2018-12-30T04:39:33.594Z,102684.47
2018-12-30T04:42:16.015Z,102683.34
2018-12-30T04:45:22.345Z,102690.66
2018-12-30T04:48:01.509Z,102691.86
2018-12-30T04:54:16.703Z,102692.13
2018-12-30T04:56:53.311Z,102664.12
2018-12-30T04:59:40.823Z,102703.64
2018-12-30T05:02:43.072Z,102705.98
2018-12-30T05:05:19.911Z,102704.17
2018-12-30T05:08:19.454Z,102696.30
2018-12-30T05:11:03.039Z,102691.00
2018-12-30T05:20:51.512Z,102724.94
2018-12-30T05:25:39.144Z,102742.53
2018-12-30T05:31:29.830Z,102714.03
2018-12-30T05:34:19.242Z,102691.19
2018-12-30T05:38:20.265Z,102706.25
2018-12-30T05:49:59.840Z,102716.27
2018-12-30T05:55:43.834Z,102715.75
2018-12-30T06:04:44.755Z,102709.38
2018-12-30T06:13:54.005Z,102740.47
2018-12-30T06:19:44.516Z,102739.98
2018-12-30T06:31:30.831Z,102759.59
2018-12-30T06:34:19.880Z,102764.80
2018-12-30T06:36:57.855Z,102772.38
2018-12-30T06:42:58.399Z,102790.08
2018-12-30T06:48:45.951Z,102785.66
2018-12-30T06:51:25.193Z,102792.24
2018-12-30T06:53:54.411Z,102795.20
2018-12-30T06:59:49.743Z,102801.63
2018-12-30T07:02:29.482Z,102811.98
2018-12-30T07:05:17.323Z,102818.31
2018-12-30T07:07:57.982Z,102816.05
2018-12-30T07:11:03.214Z,102820.97
2018-12-30T07:13:32.967Z,102828.20
2018-12-30T07:16:05.614Z,102831.86
2018-12-30T07:18:35.654Z,102838.27
2018-12-30T07:21:05.176Z,102838.38
2018-12-30T07:23:35.550Z,102837.80
2018-12-30T07:26:05.478Z,102837.19
2018-12-30T07:28:41.784Z,102837.36
2018-12-30T07:31:17.991Z,102848.00
2018-12-30T07:33:49.334Z,102826.47
2018-12-30T07:36:18.782Z,102840.17
2018-12-30T07:38:47.904Z,102833.30
2018-12-30T07:41:16.602Z,102841.10
2018-12-30T07:43:46.465Z,102840.56
2018-12-30T07:46:16.987Z,102827.18
2018-12-30T07:48:45.607Z,102824.54
2018-12-30T07:51:15.033Z,102824.54
2018-12-30T07:53:44.102Z,102838.36
2018-12-30T07:56:13.515Z,102828.28
2018-12-30T07:58:42.767Z,102835.88
2018-12-30T08:01:13.823Z,102848.38
2018-12-30T08:03:43.458Z,102848.38
2018-12-30T08:06:13.166Z,102847.12
2018-12-30T08:08:42.732Z,102850.59
2018-12-30T08:11:12.837Z,102850.59
2018-12-30T08:13:42.422Z,102857.86
2018-12-30T08:16:12.074Z,102866.16
2018-12-30T08:21:53.550Z,102863.62
2018-12-30T08:24:27.906Z,102863.73
2018-12-30T08:26:59.584Z,102864.67
2018-12-30T08:29:37.680Z,102854.84
2018-12-30T08:32:11.364Z,102854.94
2018-12-30T08:34:47.557Z,102841.10
2018-12-30T08:37:17.020Z,102856.27
2018-12-30T08:39:49.382Z,102857.34
2018-12-30T08:42:18.139Z,102858.95
2018-12-30T08:44:52.781Z,102849.47
2018-12-30T08:47:48.439Z,102853.21
2018-12-30T08:50:34.875Z,102855.73
2018-12-30T08:53:09.418Z,102859.94
2018-12-30T08:55:44.727Z,102857.47
2018-12-30T08:58:19.327Z,102869.67
2018-12-30T09:01:07.030Z,102872.13
2018-12-30T09:03:42.662Z,102874.14
2018-12-30T09:06:16.631Z,102877.17
2018-12-30T09:09:04.689Z,102876.34
2018-12-30T09:11:38.027Z,102876.94
2018-12-30T09:14:07.198Z,102888.46
2018-12-30T09:16:39.529Z,102881.30
2018-12-30T09:19:15.514Z,102886.43
2018-12-30T09:21:58.338Z,102888.16
2018-12-30T09:24:34.760Z,102880.34
2018-12-30T09:27:04.601Z,102826.37
2018-12-30T09:29:42.632Z,102865.41
2018-12-30T09:32:14.609Z,102866.27
2018-12-30T09:34:45.366Z,102870.55
2018-12-30T09:37:14.150Z,102875.77
2018-12-30T09:39:57.896Z,102884.34
2018-12-30T09:42:34.598Z,102888.55
2018-12-30T09:45:06.240Z,102896.95
2018-12-30T09:47:53.990Z,102911.88
2018-12-30T09:50:43.099Z,102896.09
2018-12-30T09:53:20.149Z,102907.14
2018-12-30T09:55:51.658Z,102907.14
2018-12-30T09:58:22.451Z,102918.56
2018-12-30T10:01:01.024Z,102919.96
2018-12-30T10:03:40.255Z,102901.41
2018-12-30T10:06:10.221Z,102909.05
2018-12-30T10:08:42.352Z,102923.64
2018-12-30T10:11:24.334Z,102923.30
2018-12-30T10:14:01.191Z,102926.69
2018-12-30T10:16:36.393Z,102937.98
2018-12-30T10:19:15.789Z,102925.90
2018-12-30T10:21:59.512Z,102925.90
2018-12-30T10:24:30.295Z,102935.02
2018-12-30T10:27:08.406Z,102947.67
2018-12-30T10:29:38.266Z,102956.78
2018-12-30T10:32:08.116Z,102954.89
2018-12-30T10:34:56.511Z,102952.52
2018-12-30T10:37:25.566Z,102951.27
2018-12-30T10:40:07.554Z,102946.17
2018-12-30T10:42:47.886Z,102944.95
2018-12-30T10:45:19.653Z,102945.69
2018-12-30T10:47:50.415Z,102944.75
2018-12-30T10:50:22.915Z,102950.70
2018-12-30T10:53:08.049Z,102955.11
2018-12-30T10:55:45.776Z,102942.98
2018-12-30T10:58:13.871Z,102931.84
2018-12-30T11:00:53.330Z,102924.30
2018-12-30T11:03:31.221Z,102920.88
2018-12-30T11:06:19.095Z,102915.89
2018-12-30T11:09:08.212Z,102916.09
2018-12-30T11:11:38.127Z,102917.95
2018-12-30T11:14:08.311Z,102908.28
2018-12-30T11:16:42.225Z,102898.75
2018-12-30T11:19:22.357Z,102904.25
2018-12-30T11:25:06.032Z,102900.84
2018-12-30T11:27:35.181Z,102898.99
2018-12-30T11:30:15.353Z,102906.65
2018-12-30T11:32:49.333Z,102902.22
2018-12-30T11:35:18.383Z,102891.73
2018-12-30T11:38:01.436Z,102896.20
2018-12-30T11:40:32.463Z,102890.79
2018-12-30T11:43:02.362Z,102887.56
2018-12-30T11:45:35.647Z,102882.94
2018-12-30T11:48:08.290Z,102877.69
2018-12-30T11:50:42.811Z,102885.69
2018-12-30T11:53:17.335Z,102879.16
2018-12-30T11:55:51.916Z,102879.23
2018-12-30T11:58:35.106Z,102888.95
2018-12-30T12:01:18.063Z,102877.16
2018-12-30T12:03:55.162Z,102873.09
2018-12-30T12:06:25.420Z,102873.11
2018-12-30T12:08:59.335Z,102875.02
2018-12-30T12:11:29.293Z,102878.52
2018-12-30T12:14:11.829Z,102878.20
2018-12-30T12:16:46.837Z,102873.55
2018-12-30T12:19:17.349Z,102873.62
2018-12-30T12:21:50.897Z,102872.81
2018-12-30T12:24:24.281Z,102872.81
2018-12-30T12:26:52.196Z,102871.21
2018-12-30T12:29:21.577Z,102874.91
2018-12-30T12:31:53.694Z,102861.06
2018-12-30T12:34:26.218Z,102851.28
2018-12-30T12:36:55.292Z,102846.50
2018-12-30T12:39:29.247Z,102848.81
2018-12-30T12:41:59.306Z,102848.81
2018-12-30T12:44:34.464Z,102847.84
2018-12-30T12:47:25.253Z,102850.94
2018-12-30T12:49:57.089Z,102846.66
2018-12-30T12:52:26.443Z,102853.44
2018-12-30T12:54:58.397Z,102851.80
2018-12-30T12:57:37.041Z,102829.83
2018-12-30T13:00:20.277Z,102829.83
2018-12-30T13:02:50.994Z,102854.47
2018-12-30T13:05:20.283Z,102851.28
2018-12-30T13:08:08.832Z,102855.55
2018-12-30T13:10:44.071Z,102855.75
2018-12-30T13:13:16.778Z,102852.52
2018-12-30T13:15:49.484Z,102850.28
2018-12-30T13:21:23.679Z,102846.22
2018-12-30T13:24:08.616Z,102844.42
2018-12-30T13:26:52.419Z,102844.15
2018-12-30T13:29:24.691Z,102836.77
2018-12-30T13:32:02.138Z,102841.31
2018-12-30T13:34:44.333Z,102839.77
2018-12-30T13:37:13.364Z,102844.16
2018-12-30T13:39:49.010Z,102846.09
2018-12-30T13:42:29.934Z,102849.00
2018-12-30T13:44:59.393Z,102854.54
2018-12-30T13:47:44.031Z,102863.05
2018-12-30T13:50:17.876Z,102862.82
2018-12-30T13:52:55.146Z,102872.94
2018-12-30T13:55:35.963Z,102870.48
2018-12-30T13:58:05.797Z,102867.87
2018-12-30T14:00:36.090Z,102871.68
2018-12-30T14:03:07.816Z,102872.99
2018-12-30T14:05:59.848Z,102870.09
2018-12-30T14:08:43.907Z,102869.33
2018-12-30T14:11:25.690Z,102867.87
2018-12-30T14:14:00.656Z,102874.92
2018-12-30T14:16:30.538Z,102872.78
2018-12-30T14:19:05.202Z,102871.53
2018-12-30T14:21:34.111Z,102877.06
2018-12-30T14:24:07.155Z,102882.94
2018-12-30T14:26:41.367Z,102882.64
2018-12-30T14:29:18.441Z,102883.52
2018-12-30T14:31:54.268Z,102884.34
2018-12-30T14:34:28.102Z,102883.64
2018-12-30T14:37:02.267Z,102874.27
2018-12-30T14:39:44.053Z,102870.14
2018-12-30T14:42:16.361Z,102863.14
2018-12-30T14:44:45.579Z,102861.83
2018-12-30T14:47:14.999Z,102858.59
2018-12-30T14:49:58.265Z,102859.97
2018-12-30T14:52:27.756Z,102820.65
2018-12-30T14:55:03.489Z,102854.54
2018-12-30T14:57:36.689Z,102857.88
2018-12-30T15:00:18.567Z,102857.57
2018-12-30T15:02:58.031Z,102849.80
2018-12-30T15:09:10.197Z,102850.75
2018-12-30T15:11:45.586Z,102854.05
2018-12-30T15:14:33.349Z,102849.23
2018-12-30T15:16:59.808Z,102854.69
2018-12-30T15:19:33.284Z,102861.11
2018-12-30T15:22:12.036Z,102858.84
2018-12-30T15:24:50.990Z,102863.03
2018-12-30T15:27:18.413Z,102864.61
2018-12-30T15:29:55.593Z,102855.44
2018-12-30T15:32:36.617Z,102857.23
2018-12-30T15:35:16.054Z,102859.05
2018-12-30T15:37:51.067Z,102850.34
2018-12-30T15:40:32.196Z,102841.16
2018-12-30T15:43:04.533Z,102837.82
2018-12-30T15:45:43.067Z,102844.88
2018-12-30T15:48:13.443Z,102836.09
2018-12-30T15:50:47.612Z,102836.05
2018-12-30T15:53:20.326Z,102839.14
2018-12-30T15:55:58.452Z,102846.02
2018-12-30T15:58:34.764Z,102838.97
2018-12-30T16:01:10.786Z,102827.63
2018-12-30T16:03:50.995Z,102820.29
2018-12-30T16:06:26.220Z,102811.06
2018-12-30T16:09:11.201Z,102815.17
2018-12-30T16:15:03.769Z,102811.03
2018-12-30T16:17:39.374Z,102810.77
2018-12-30T16:20:40.205Z,102812.58
2018-12-30T16:23:09.625Z,102815.88
2018-12-30T16:29:02.612Z,102819.55
2018-12-30T16:31:47.246Z,102810.44
2018-12-30T16:34:21.888Z,102810.84
2018-12-30T16:36:59.639Z,102810.11
2018-12-30T16:39:36.305Z,102806.98
2018-12-30T16:42:22.367Z,102812.37
2018-12-30T16:44:55.541Z,102818.77
2018-12-30T16:47:30.219Z,102825.28
2018-12-30T16:50:02.337Z,102823.74
2018-12-30T16:52:38.248Z,102824.29
2018-12-30T16:55:13.116Z,102825.00
2018-12-30T16:57:50.789Z,102825.36
2018-12-30T17:00:25.355Z,102825.50
2018-12-30T17:02:58.694Z,102777.63
2018-12-30T17:05:32.125Z,102818.20
2018-12-30T17:08:04.428Z,102816.99
2018-12-30T17:10:43.820Z,102816.13
2018-12-30T17:13:32.535Z,102822.93
2018-12-30T17:16:01.984Z,102822.89
2018-12-30T17:18:34.327Z,102828.04
2018-12-30T17:21:10.892Z,102815.38
2018-12-30T17:25:59.072Z,102804.36
2018-12-30T17:28:33.192Z,102806.13
2018-12-30T17:37:30.912Z,102782.56
2018-12-30T17:40:38.386Z,102785.70
2018-12-30T17:46:18.459Z,102778.44
2018-12-30T17:49:13.418Z,102779.51
2018-12-30T17:51:48.473Z,102780.19
2018-12-30T17:54:20.223Z,102781.70
2018-12-30T17:56:50.505Z,102774.00
2018-12-30T17:59:22.531Z,102774.00
2018-12-30T18:02:13.723Z,102772.05
2018-12-30T18:08:07.336Z,102777.88
2018-12-30T18:10:44.842Z,102774.58
2018-12-30T18:13:20.593Z,102782.52
2018-12-30T18:19:19.821Z,102778.90
2018-12-30T18:37:12.757Z,102783.65
2018-12-30T18:40:03.223Z,102783.40
2018-12-30T18:43:14.196Z,102787.24
2018-12-30T18:55:44.137Z,102777.53
2018-12-30T19:10:45.520Z,102752.69
2018-12-30T19:22:21.999Z,102752.54
2018-12-30T19:27:55.338Z,102741.68
2018-12-30T19:33:53.282Z,102746.16
2018-12-30T19:37:17.985Z,102754.50
2018-12-30T19:39:39.682Z,102754.17
2018-12-30T19:42:12.214Z,102753.88
2018-12-30T19:48:13.694Z,102757.08
2018-12-30T20:21:29.588Z,102769.54
2018-12-30T20:24:38.188Z,102765.17
2018-12-30T20:28:11.342Z,102762.74
2018-12-30T20:33:41.257Z,102757.02
2018-12-30T20:37:00.628Z,102757.42
2018-12-30T20:43:01.297Z,102748.77
2018-12-30T20:45:44.954Z,102756.42
2018-12-30T20:49:05.815Z,102763.20
2018-12-30T20:52:22.842Z,102757.06
2018-12-30T20:55:05.510Z,102752.68
2018-12-30T20:57:39.649Z,102755.08
2018-12-30T21:09:28.470Z,102756.33
2018-12-30T21:15:25.422Z,102764.72
2018-12-30T21:18:32.133Z,102753.67
2018-12-30T21:21:23.635Z,102759.19
2018-12-30T21:24:16.713Z,102751.55
2018-12-30T21:27:05.723Z,102755.66
2018-12-30T21:30:15.660Z,102750.49
2018-12-30T21:39:53.123Z,102749.07
2018-12-30T21:49:21.208Z,102745.09
2018-12-30T21:54:53.460Z,102757.96
2018-12-30T21:57:43.866Z,102747.77
2018-12-30T22:17:48.475Z,102738.43
2018-12-30T22:26:59.766Z,102743.98
2018-12-30T22:42:42.070Z,102769.28
2018-12-30T22:48:17.464Z,102759.95
2018-12-30T23:05:28.249Z,102751.81
2018-12-30T23:32:30.147Z,102765.20
2018-12-30T23:38:12.293Z,102761.87
2018-12-30T23:47:10.046Z,102770.22
2018-12-30T23:50:22.911Z,102756.02
2018-12-30T23:53:19.818Z,102759.27
2018-12-30T23:59:05.917Z,102761.00
